Archival Weather

Chicago O'Hare International

Chicago, Illinois (KORD)

Report from: Saturday, March 18, 2023 4:51 PM CDT
Current time: Saturday, July 13, 2024 7:42 PM CDT

Current weather – Weather history – Daily summaries
Weather forecast

Present weatherLight snow
Temperature-4.4°C (24.1°F)
Wind chill-10.2°C (13.7°F)
Dew point-13.3°C (8.1°F)
Winds 9 kts (4.6 m/s, 10.4 mph) West (280°)
Wind gusts 26 kts (13.4 m/s, 29.9 mph)
Peak wind 28 kts (14.4 m/s, 32.2 mph) West (260°) at 21:17
Visibility9 mi. (14.5 km)
Clouds Scattered clouds 4,100 ft. (1,250 m)
Ceiling: Broken clouds 5,000 ft. (1,524 m)
Broken clouds 6,500 ft. (1,981 m)
Altimeter30.06 in.Hg (1018 mB)
PrecipitiationTrace
Relative humidity50 %
Density altitude-2,555 ft. (-779 m)
Sea-level pressure101.9 kPa (1019 mB, 30.09 in.Hg)
Remarks Automated weather observing station with precipitation discriminator
Flight conditions Visual Meteorological Conditions
Raw dataKORD 182151Z 28009G26KT 9SM -SN SCT041 BKN050 BKN065 M04/M13 A3006 RMK AO2 PK WND 26028/2117 SLP191 P0000 T10441133
An error has occurred. This application may no longer respond until reloaded. Reload 🗙